Time,TemperatureF,DewpointF,PressureIn,WindDirection,WindDirectionDegrees,WindSpeedMPH,WindSpeedGustMPH,Humidity,HourlyPrecipIn,Conditions,Clouds,dailyrainin,SoftwareType,DateUTC
2013-02-04 00:02:00,27.7,-5.3,28.85,North,3,4.9,7.6,23,0.00,,,0.00,VWS V13.01,2013-02-04 06:02:00,
2013-02-04 00:07:00,27.9,-5.1,28.85,North,4,4.0,5.8,23,0.00,,,0.00,VWS V13.01,2013-02-04 06:07:00,
2013-02-04 00:12:00,27.9,-5.1,28.85,North,4,6.3,8.3,23,0.00,,,0.00,VWS V13.01,2013-02-04 06:12:00,
2013-02-04 00:17:00,28.0,-5.0,28.85,North,3,3.6,5.8,23,0.00,,,0.00,VWS V13.01,2013-02-04 06:17:00,
2013-02-04 00:22:00,28.0,-5.0,28.85,North,4,4.0,5.8,23,0.00,,,0.00,VWS V13.01,2013-02-04 06:22:00,
2013-02-04 00:27:00,28.0,-5.0,28.85,North,4,5.8,5.8,23,0.00,,,0.00,VWS V13.01,2013-02-04 06:27:00,
2013-02-04 00:32:00,28.2,-4.8,28.85,North,4,3.6,4.9,23,0.00,,,0.00,VWS V13.01,2013-02-04 06:32:00,
2013-02-04 00:37:00,28.4,-4.7,28.85,North,3,3.6,5.8,23,0.00,,,0.00,VWS V13.01,2013-02-04 06:37:00,
2013-02-04 00:42:00,28.6,-4.5,28.85,North,4,3.6,4.9,23,0.00,,,0.00,VWS V13.01,2013-02-04 06:42:00,
2013-02-04 00:48:00,28.8,-4.3,28.82,North,4,4.0,4.0,23,0.00,,,0.00,VWS V13.01,2013-02-04 06:48:00,
2013-02-04 00:53:00,29.1,-4.1,28.82,North,4,3.6,5.8,23,0.00,,,0.00,VWS V13.01,2013-02-04 06:53:00,
2013-02-04 00:58:00,29.3,-3.9,28.82,North,4,5.8,5.8,23,0.00,,,0.00,VWS V13.01,2013-02-04 06:58:00,
2013-02-04 01:03:00,29.7,-3.6,28.82,North,4,5.4,5.4,23,0.00,,,0.00,VWS V13.01,2013-02-04 07:03:00,
2013-02-04 01:08:00,30.2,-3.1,28.82,North,4,4.0,5.8,23,0.00,,,0.00,VWS V13.01,2013-02-04 07:08:00,
2013-02-04 01:13:00,30.4,-3.0,28.82,North,3,6.3,6.3,23,0.00,,,0.00,VWS V13.01,2013-02-04 07:13:00,
2013-02-04 01:18:00,30.7,-2.7,28.82,North,4,5.4,5.4,23,0.00,,,0.00,VWS V13.01,2013-02-04 07:18:00,
2013-02-04 01:23:00,30.9,-2.5,28.82,North,4,3.6,4.0,23,0.00,,,0.00,VWS V13.01,2013-02-04 07:23:00,
2013-02-04 01:28:00,31.3,-2.2,28.82,North,3,8.1,8.1,23,0.00,,,0.00,VWS V13.01,2013-02-04 07:28:00,
2013-02-04 01:33:00,31.6,-1.9,28.82,North,4,3.1,5.8,23,0.00,,,0.00,VWS V13.01,2013-02-04 07:33:00,
2013-02-04 01:38:00,32.0,-1.6,28.82,North,4,3.1,5.4,23,0.00,,,0.00,VWS V13.01,2013-02-04 07:38:00,
2013-02-04 01:43:00,32.2,-1.4,28.82,North,4,4.0,4.0,23,0.00,,,0.00,VWS V13.01,2013-02-04 07:43:00,
2013-02-04 01:48:00,32.4,-1.3,28.82,North,4,3.6,3.6,23,0.00,,,0.00,VWS V13.01,2013-02-04 07:48:00,
2013-02-04 01:53:00,32.4,-1.3,28.82,North,4,3.1,3.6,23,0.00,,,0.00,VWS V13.01,2013-02-04 07:53:00,
2013-02-04 01:58:00,32.4,0.5,28.82,North,4,5.4,5.4,25,0.00,,,0.00,VWS V13.01,2013-02-04 07:58:00,
2013-02-04 02:03:00,32.5,0.6,28.82,North,4,4.0,5.8,25,0.00,,,0.00,VWS V13.01,2013-02-04 08:03:00,
2013-02-04 02:08:00,32.5,0.6,28.82,North,3,5.4,5.4,25,0.00,,,0.00,VWS V13.01,2013-02-04 08:08:00,
2013-02-04 02:14:00,32.7,0.8,28.82,North,4,3.1,5.4,25,0.00,,,0.00,VWS V13.01,2013-02-04 08:14:00,
2013-02-04 02:19:00,32.7,0.8,28.82,North,4,4.9,5.4,25,0.00,,,0.00,VWS V13.01,2013-02-04 08:19:00,
2013-02-04 02:24:00,32.9,0.9,28.82,North,4,4.0,4.0,25,0.00,,,0.00,VWS V13.01,2013-02-04 08:24:00,
2013-02-04 02:29:00,33.1,1.1,28.79,North,4,3.1,4.5,25,0.00,,,0.00,VWS V13.01,2013-02-04 08:29:00,
2013-02-04 02:34:00,33.1,1.1,28.79,North,4,5.4,5.4,25,0.00,,,0.00,VWS V13.01,2013-02-04 08:34:00,
2013-02-04 02:39:00,33.1,1.1,28.79,North,4,5.8,5.8,25,0.00,,,0.00,VWS V13.01,2013-02-04 08:39:00,
2013-02-04 02:44:00,33.1,1.1,28.79,North,3,3.6,5.4,25,0.00,,,0.00,VWS V13.01,2013-02-04 08:44:00,
2013-02-04 02:49:00,33.1,1.1,28.79,North,4,3.1,3.6,25,0.00,,,0.00,VWS V13.01,2013-02-04 08:49:00,
2013-02-04 02:54:00,33.1,1.1,28.79,North,4,4.9,5.4,25,0.00,,,0.00,VWS V13.01,2013-02-04 08:54:00,
2013-02-04 02:59:00,33.1,1.1,28.79,North,4,5.4,5.4,25,0.00,,,0.00,VWS V13.01,2013-02-04 08:59:00,
2013-02-04 03:04:00,33.3,1.2,28.79,North,4,4.0,4.0,25,0.00,,,0.00,VWS V13.01,2013-02-04 09:04:00,
2013-02-04 03:09:00,33.3,1.2,28.79,North,4,5.4,5.4,25,0.00,,,0.00,VWS V13.01,2013-02-04 09:09:00,
2013-02-04 03:14:00,33.3,1.2,28.79,North,4,4.5,4.5,25,0.00,,,0.00,VWS V13.01,2013-02-04 09:14:00,
2013-02-04 03:20:00,33.3,1.2,28.79,North,4,3.1,3.1,25,0.00,,,0.00,VWS V13.01,2013-02-04 09:20:00,
2013-02-04 03:25:00,33.3,1.2,28.79,North,5,0.0,0.0,25,0.00,,,0.00,VWS V13.01,2013-02-04 09:25:00,
2013-02-04 03:30:00,33.1,1.1,28.82,North,5,0.0,0.0,25,0.00,,,0.00,VWS V13.01,2013-02-04 09:30:00,
2013-02-04 03:35:00,32.7,0.8,28.82,North,5,0.0,0.0,25,0.00,,,0.00,VWS V13.01,2013-02-04 09:35:00,
2013-02-04 03:40:00,32.4,0.5,28.82,North,5,0.0,0.0,25,0.00,,,0.00,VWS V13.01,2013-02-04 09:40:00,
2013-02-04 03:45:00,32.0,0.2,28.79,North,10,0.0,0.0,25,0.00,,,0.00,VWS V13.01,2013-02-04 09:45:00,
2013-02-04 03:50:00,31.6,-0.1,28.79,NNE,19,0.0,0.0,25,0.00,,,0.00,VWS V13.01,2013-02-04 09:50:00,
2013-02-04 03:55:00,31.3,-0.4,28.79,NNE,19,0.0,0.0,25,0.00,,,0.00,VWS V13.01,2013-02-04 09:55:00,
2013-02-04 04:00:00,31.1,-0.6,28.79,NNE,18,0.0,0.0,25,0.00,,,0.00,VWS V13.01,2013-02-04 10:00:00,
2013-02-04 04:05:00,30.7,-0.9,28.79,NNE,18,0.0,0.0,25,0.00,,,0.00,VWS V13.01,2013-02-04 10:05:00,
2013-02-04 04:10:00,30.6,-1.1,28.79,NNE,12,0.0,0.0,25,0.00,,,0.00,VWS V13.01,2013-02-04 10:10:00,
2013-02-04 04:15:00,30.4,-1.2,28.82,NNE,12,0.0,0.0,25,0.00,,,0.00,VWS V13.01,2013-02-04 10:15:00,
2013-02-04 04:20:00,30.0,-1.5,28.82,North,9,0.0,0.0,25,0.00,,,0.00,VWS V13.01,2013-02-04 10:20:00,
2013-02-04 04:25:00,29.8,-1.7,28.82,North,0,0.0,0.0,25,0.00,,,0.00,VWS V13.01,2013-02-04 10:25:00,
2013-02-04 04:30:00,29.7,-1.8,28.82,North,8,0.0,0.0,25,0.00,,,0.00,VWS V13.01,2013-02-04 10:30:00,
2013-02-04 04:35:00,29.5,-2.0,28.82,North,9,0.0,0.0,25,0.00,,,0.00,VWS V13.01,2013-02-04 10:35:00,
2013-02-04 04:41:00,29.3,-2.2,28.82,North,8,0.0,0.0,25,0.00,,,0.00,VWS V13.01,2013-02-04 10:41:00,
2013-02-04 04:46:00,29.1,-2.3,28.82,NNE,19,0.0,0.0,25,0.00,,,0.00,VWS V13.01,2013-02-04 10:46:00,
2013-02-04 04:51:00,28.6,-2.8,28.82,NNE,25,0.0,3.6,25,0.00,,,0.00,VWS V13.01,2013-02-04 10:51:00,
2013-02-04 04:56:00,28.4,-2.1,28.82,NNE,13,0.0,0.0,26,0.00,,,0.00,VWS V13.01,2013-02-04 10:56:00,
2013-02-04 05:01:00,28.2,-2.2,28.82,NNE,18,0.0,0.0,26,0.00,,,0.00,VWS V13.01,2013-02-04 11:01:00,
2013-02-04 05:06:00,27.9,-2.6,28.82,NNE,18,0.0,0.0,26,0.00,,,0.00,VWS V13.01,2013-02-04 11:06:00,
2013-02-04 05:11:00,27.9,-2.6,28.82,NNE,18,0.0,0.0,26,0.00,,,0.00,VWS V13.01,2013-02-04 11:11:00,
2013-02-04 05:16:00,27.5,-2.9,28.82,NNE,18,0.0,0.0,26,0.00,,,0.00,VWS V13.01,2013-02-04 11:16:00,
2013-02-04 05:21:00,27.3,-3.0,28.82,NNE,18,0.0,0.0,26,0.00,,,0.00,VWS V13.01,2013-02-04 11:21:00,
2013-02-04 05:27:00,27.1,-3.2,28.82,NNE,18,0.0,0.0,26,0.00,,,0.00,VWS V13.01,2013-02-04 11:27:00,
2013-02-04 05:32:00,27.1,-3.2,28.82,NNE,18,0.0,0.0,26,0.00,,,0.00,VWS V13.01,2013-02-04 11:32:00,
2013-02-04 05:37:00,27.1,-3.2,28.82,NNE,18,0.0,0.0,26,0.00,,,0.00,VWS V13.01,2013-02-04 11:37:00,
2013-02-04 05:42:00,27.3,-3.0,28.82,NNE,18,0.0,0.0,26,0.00,,,0.00,VWS V13.01,2013-02-04 11:42:00,
2013-02-04 05:47:00,27.1,-3.2,28.82,NNE,18,0.0,0.0,26,0.00,,,0.00,VWS V13.01,2013-02-04 11:47:00,
2013-02-04 05:52:00,26.8,-3.5,28.82,NNE,18,0.0,0.0,26,0.00,,,0.00,VWS V13.01,2013-02-04 11:52:00,
2013-02-04 05:57:00,26.1,-4.1,28.82,NNE,18,0.0,0.0,26,0.00,,,0.00,VWS V13.01,2013-02-04 11:57:00,
2013-02-04 06:02:00,25.9,-4.3,28.82,NNE,16,0.0,0.0,26,0.00,,,0.00,VWS V13.01,2013-02-04 12:02:00,
2013-02-04 06:07:00,25.5,-4.6,28.82,NNE,16,0.0,0.0,26,0.00,,,0.00,VWS V13.01,2013-02-04 12:07:00,
2013-02-04 06:12:00,25.3,-4.7,28.82,North,6,0.0,0.0,26,0.00,,,0.00,VWS V13.01,2013-02-04 12:12:00,
2013-02-04 06:17:00,25.2,-4.9,28.82,North,7,4.9,5.4,26,0.00,,,0.00,VWS V13.01,2013-02-04 12:17:00,
2013-02-04 06:23:00,25.2,-2.6,28.82,North,5,0.0,0.0,29,0.00,,,0.00,VWS V13.01,2013-02-04 12:23:00,
2013-02-04 06:28:00,25.2,-2.6,28.82,NNE,16,4.0,4.0,29,0.00,,,0.00,VWS V13.01,2013-02-04 12:28:00,
2013-02-04 06:33:00,25.0,-2.8,28.85,North,357,2.2,4.0,29,0.00,,,0.00,VWS V13.01,2013-02-04 12:33:00,
2013-02-04 06:38:00,24.8,-2.9,28.85,North,357,3.6,4.0,29,0.00,,,0.00,VWS V13.01,2013-02-04 12:38:00,
2013-02-04 06:43:00,24.4,-3.2,28.85,North,8,5.8,5.8,29,0.00,,,0.00,VWS V13.01,2013-02-04 12:43:00,
2013-02-04 06:48:00,24.1,-1.5,28.85,North,4,4.0,4.5,32,0.00,,,0.00,VWS V13.01,2013-02-04 12:48:00,
2013-02-04 06:53:00,23.7,-1.8,28.85,North,3,2.7,4.0,32,0.00,,,0.00,VWS V13.01,2013-02-04 12:53:00,
2013-02-04 06:58:00,23.4,-2.1,28.88,North,11,3.1,3.1,32,0.00,,,0.00,VWS V13.01,2013-02-04 12:58:00,
2013-02-04 07:03:00,23.0,-2.5,28.88,North,9,4.0,4.0,32,0.00,,,0.00,VWS V13.01,2013-02-04 13:03:00,
2013-02-04 07:08:00,22.8,-2.6,28.88,NNE,23,2.7,3.6,32,0.00,,,0.00,VWS V13.01,2013-02-04 13:08:00,
2013-02-04 07:13:00,22.5,-2.9,28.88,North,6,5.4,6.3,32,0.00,,,0.00,VWS V13.01,2013-02-04 13:13:00,
2013-02-04 07:18:00,22.3,-3.1,28.88,North,4,4.0,6.3,32,0.00,,,0.00,VWS V13.01,2013-02-04 13:18:00,
2013-02-04 07:24:00,22.1,-3.2,28.88,NE,48,2.2,2.7,32,0.00,,,0.00,VWS V13.01,2013-02-04 13:24:00,
2013-02-04 07:29:00,21.9,-3.4,28.88,North,10,6.7,6.7,32,0.00,,,0.00,VWS V13.01,2013-02-04 13:29:00,
2013-02-04 07:34:00,21.9,-3.4,28.88,North,8,5.8,5.8,32,0.00,,,0.00,VWS V13.01,2013-02-04 13:34:00,
2013-02-04 07:39:00,21.9,-2.8,28.88,North,5,4.0,6.3,33,0.00,,,0.00,VWS V13.01,2013-02-04 13:39:00,
2013-02-04 07:44:00,21.9,-2.8,28.91,North,5,2.2,3.6,33,0.00,,,0.00,VWS V13.01,2013-02-04 13:44:00,
2013-02-04 07:49:00,21.9,-2.8,28.91,North,10,5.4,5.8,33,0.00,,,0.00,VWS V13.01,2013-02-04 13:49:00,
2013-02-04 07:54:00,22.1,-2.6,28.91,North,3,2.7,3.1,33,0.00,,,0.00,VWS V13.01,2013-02-04 13:54:00,
2013-02-04 07:59:00,22.3,-2.4,28.91,North,9,5.4,5.4,33,0.00,,,0.00,VWS V13.01,2013-02-04 13:59:00,
2013-02-04 08:04:00,22.3,-2.4,28.91,North,8,3.1,5.8,33,0.00,,,0.00,VWS V13.01,2013-02-04 14:04:00,
2013-02-04 08:09:00,22.8,-2.0,28.91,North,5,3.6,3.6,33,0.00,,,0.00,VWS V13.01,2013-02-04 14:09:00,
2013-02-04 08:14:00,23.2,-1.6,28.91,North,6,2.7,5.4,33,0.00,,,0.00,VWS V13.01,2013-02-04 14:14:00,
2013-02-04 08:19:00,23.5,-1.3,28.91,North,4,3.1,3.1,33,0.00,,,0.00,VWS V13.01,2013-02-04 14:19:00,
2013-02-04 08:24:00,24.1,-1.5,28.91,NNE,23,5.8,6.3,32,0.00,,,0.00,VWS V13.01,2013-02-04 14:24:00,
2013-02-04 08:30:00,24.3,-1.3,28.94,North,5,3.6,4.9,32,0.00,,,0.00,VWS V13.01,2013-02-04 14:30:00,
2013-02-04 08:35:00,24.6,-1.0,28.94,North,3,3.6,5.4,32,0.00,,,0.00,VWS V13.01,2013-02-04 14:35:00,
2013-02-04 08:40:00,24.6,-1.0,28.94,North,6,4.9,5.8,32,0.00,,,0.00,VWS V13.01,2013-02-04 14:40:00,
2013-02-04 08:45:00,24.4,-1.2,28.94,North,7,3.6,6.3,32,0.00,,,0.00,VWS V13.01,2013-02-04 14:45:00,
2013-02-04 08:50:00,24.4,-1.2,28.94,NNE,13,3.1,4.0,32,0.00,,,0.00,VWS V13.01,2013-02-04 14:50:00,
2013-02-04 08:55:00,24.6,-1.0,28.94,NNE,26,3.6,7.6,32,0.00,,,0.00,VWS V13.01,2013-02-04 14:55:00,
2013-02-04 09:00:00,24.3,-3.4,28.97,North,2,3.1,7.6,29,0.00,,,0.00,VWS V13.01,2013-02-04 15:00:00,
2013-02-04 09:05:00,23.7,-3.9,28.97,North,6,3.1,7.6,29,0.00,,,0.00,VWS V13.01,2013-02-04 15:05:00,
2013-02-04 09:10:00,23.2,-2.3,28.97,NNE,13,5.8,5.8,32,0.00,,,0.00,VWS V13.01,2013-02-04 15:10:00,
2013-02-04 09:15:00,23.0,-2.5,28.97,North,8,8.1,8.1,32,0.00,,,0.00,VWS V13.01,2013-02-04 15:15:00,
2013-02-04 09:20:00,22.8,-2.6,28.97,North,9,4.0,9.6,32,0.00,,,0.00,VWS V13.01,2013-02-04 15:20:00,
2013-02-04 09:25:00,22.8,-2.6,28.97,North,2,3.1,3.1,32,0.00,,,0.00,VWS V13.01,2013-02-04 15:25:00,
2013-02-04 09:30:00,22.8,-2.0,28.97,North,7,3.1,3.1,33,0.00,,,0.00,VWS V13.01,2013-02-04 15:30:00,
2013-02-04 09:35:00,22.8,-2.0,28.97,North,3,3.6,10.1,33,0.00,,,0.00,VWS V13.01,2013-02-04 15:35:00,
2013-02-04 09:40:00,22.6,-2.1,28.97,NNE,18,4.5,6.3,33,0.00,,,0.00,VWS V13.01,2013-02-04 15:40:00,
2013-02-04 09:45:00,22.8,-2.0,28.97,North,10,2.7,2.7,33,0.00,,,0.00,VWS V13.01,2013-02-04 15:45:00,
2013-02-04 09:51:00,22.5,-2.9,28.97,North,3,3.6,6.3,32,0.00,,,0.00,VWS V13.01,2013-02-04 15:51:00,
2013-02-04 09:56:00,22.3,-3.1,28.97,North,2,6.3,6.3,32,0.00,,,0.00,VWS V13.01,2013-02-04 15:56:00,
2013-02-04 10:01:00,22.6,-2.1,28.97,NNE,14,5.4,5.4,33,0.00,,,0.00,VWS V13.01,2013-02-04 16:01:00,
2013-02-04 10:06:00,22.5,-2.9,28.97,North,5,0.0,3.6,32,0.00,,,0.00,VWS V13.01,2013-02-04 16:06:00,
2013-02-04 10:11:00,22.3,-3.1,28.97,NNE,28,5.4,5.4,32,0.00,,,0.00,VWS V13.01,2013-02-04 16:11:00,
2013-02-04 10:16:00,22.3,-3.1,29.00,North,4,2.7,8.1,32,0.00,,,0.00,VWS V13.01,2013-02-04 16:16:00,
2013-02-04 10:21:00,22.6,-2.8,29.00,North,5,3.6,5.8,32,0.00,,,0.00,VWS V13.01,2013-02-04 16:21:00,
2013-02-04 10:26:00,23.0,-2.5,29.00,North,3,2.2,10.1,32,0.00,,,0.00,VWS V13.01,2013-02-04 16:26:00,
2013-02-04 10:31:00,23.2,-4.3,29.00,North,4,5.4,7.6,29,0.00,,,0.00,VWS V13.01,2013-02-04 16:31:00,
2013-02-04 10:36:00,23.0,-3.8,29.00,North,7,6.3,6.3,30,0.00,,,0.00,VWS V13.01,2013-02-04 16:36:00,
2013-02-04 10:41:00,23.2,-4.3,29.00,NNE,22,3.1,6.3,29,0.00,,,0.00,VWS V13.01,2013-02-04 16:41:00,
2013-02-04 10:46:00,23.0,-3.8,29.00,NNE,33,3.1,3.6,30,0.00,,,0.00,VWS V13.01,2013-02-04 16:46:00,
2013-02-04 10:51:00,22.5,-6.5,29.00,NNE,12,10.5,10.5,27,0.00,,,0.00,VWS V13.01,2013-02-04 16:51:00,
2013-02-04 10:56:00,22.1,-6.8,29.00,North,7,8.3,10.1,27,0.00,,,0.00,VWS V13.01,2013-02-04 16:56:00,
2013-02-04 11:01:00,22.1,-6.8,29.00,North,3,4.9,4.9,27,0.00,,,0.00,VWS V13.01,2013-02-04 17:01:00,
2013-02-04 11:06:00,22.6,-4.1,29.00,NNE,22,5.4,6.3,30,0.00,,,0.00,VWS V13.01,2013-02-04 17:06:00,
2013-02-04 11:12:00,22.8,-6.1,29.00,North,11,5.8,8.7,27,0.00,,,0.00,VWS V13.01,2013-02-04 17:12:00,
2013-02-04 11:17:00,22.8,-6.1,29.03,North,4,4.0,11.0,27,0.00,,,0.00,VWS V13.01,2013-02-04 17:17:00,
2013-02-04 11:22:00,23.0,-6.0,29.03,NNE,22,6.7,6.7,27,0.00,,,0.00,VWS V13.01,2013-02-04 17:22:00,
2013-02-04 11:27:00,23.0,-6.0,29.03,North,7,3.1,8.3,27,0.00,,,0.00,VWS V13.01,2013-02-04 17:27:00,
2013-02-04 11:32:00,23.0,-6.0,29.06,North,4,8.7,11.9,27,0.00,,,0.00,VWS V13.01,2013-02-04 17:32:00,
2013-02-04 11:37:00,23.5,-5.5,29.06,NNE,25,4.9,4.9,27,0.00,,,0.00,VWS V13.01,2013-02-04 17:37:00,
2013-02-04 11:42:00,24.4,-4.7,29.06,North,5,3.1,5.4,27,0.00,,,0.00,VWS V13.01,2013-02-04 17:42:00,
2013-02-04 11:47:00,24.4,-7.2,29.06,North,6,4.0,12.8,24,0.00,,,0.00,VWS V13.01,2013-02-04 17:47:00,
2013-02-04 11:53:00,24.6,-7.0,29.06,North,3,3.1,3.1,24,0.00,,,0.00,VWS V13.01,2013-02-04 17:53:00,
2013-02-04 11:58:00,25.2,-6.6,29.06,North,6,3.1,8.7,24,0.00,,,0.00,VWS V13.01,2013-02-04 17:58:00,
2013-02-04 12:03:00,25.2,-6.6,29.06,North,3,2.7,4.0,24,0.00,,,0.00,VWS V13.01,2013-02-04 18:03:00,
2013-02-04 12:08:00,25.5,-6.2,29.06,North,7,7.6,10.1,24,0.00,,,0.00,VWS V13.01,2013-02-04 18:08:00,
2013-02-04 12:13:00,25.7,-6.1,29.06,North,3,0.0,10.5,24,0.00,,,0.00,VWS V13.01,2013-02-04 18:13:00,
2013-02-04 12:18:00,26.2,-5.6,29.03,North,10,4.0,7.6,24,0.00,,,0.00,VWS V13.01,2013-02-04 18:18:00,
2013-02-04 12:23:00,26.2,-5.6,29.03,North,11,4.0,4.0,24,0.00,,,0.00,VWS V13.01,2013-02-04 18:23:00,
2013-02-04 12:28:00,27.0,-5.9,29.03,North,4,3.6,3.6,23,0.00,,,0.00,VWS V13.01,2013-02-04 18:28:00,
2013-02-04 12:33:00,27.5,-5.4,29.03,NNE,12,4.0,9.2,23,0.00,,,0.00,VWS V13.01,2013-02-04 18:33:00,
2013-02-04 12:38:00,27.5,-5.4,29.03,North,5,10.5,10.5,23,0.00,,,0.00,VWS V13.01,2013-02-04 18:38:00,
2013-02-04 12:44:00,27.3,-5.6,29.03,North,8,4.9,5.8,23,0.00,,,0.00,VWS V13.01,2013-02-04 18:44:00,
2013-02-04 12:49:00,27.9,-5.1,29.03,NNE,13,4.9,4.9,23,0.00,,,0.00,VWS V13.01,2013-02-04 18:49:00,
2013-02-04 12:54:00,27.7,-5.3,29.03,North,7,8.1,9.2,23,0.00,,,0.00,VWS V13.01,2013-02-04 18:54:00,
2013-02-04 12:59:00,27.5,-5.4,29.03,North,7,5.8,5.8,23,0.00,,,0.00,VWS V13.01,2013-02-04 18:59:00,
2013-02-04 13:04:00,27.5,-5.4,29.03,NNE,24,6.3,6.3,23,0.00,,,0.00,VWS V13.01,2013-02-04 19:04:00,
2013-02-04 13:09:00,27.9,-5.1,29.03,North,2,5.8,5.8,23,0.00,,,0.00,VWS V13.01,2013-02-04 19:09:00,
2013-02-04 13:14:00,28.0,-5.0,29.03,NNE,16,7.6,7.6,23,0.00,,,0.00,VWS V13.01,2013-02-04 19:14:00,
2013-02-04 13:19:00,28.0,-5.0,29.03,South,184,4.0,4.0,23,0.00,,,0.00,VWS V13.01,2013-02-04 19:19:00,
2013-02-04 13:24:00,28.6,-4.5,29.03,NNE,31,8.7,8.7,23,0.00,,,0.00,VWS V13.01,2013-02-04 19:24:00,
2013-02-04 13:29:00,28.6,-4.5,29.00,SE,141,2.2,2.2,23,0.00,,,0.00,VWS V13.01,2013-02-04 19:29:00,
2013-02-04 13:35:00,28.8,-4.3,29.00,North,1,5.8,5.8,23,0.00,,,0.00,VWS V13.01,2013-02-04 19:35:00,
2013-02-04 13:40:00,28.8,-4.3,29.00,North,4,2.2,8.3,23,0.00,,,0.00,VWS V13.01,2013-02-04 19:40:00,
2013-02-04 13:45:00,29.1,-4.1,29.00,NNE,20,0.0,3.1,23,0.00,,,0.00,VWS V13.01,2013-02-04 19:45:00,
2013-02-04 13:50:00,29.8,-3.4,29.00,NNE,16,0.0,4.0,23,0.00,,,0.00,VWS V13.01,2013-02-04 19:50:00,
2013-02-04 13:55:00,29.8,-3.4,29.00,NNE,15,2.7,2.7,23,0.00,,,0.00,VWS V13.01,2013-02-04 19:55:00,
2013-02-04 14:00:00,29.5,-3.7,29.00,East,101,3.6,4.0,23,0.00,,,0.00,VWS V13.01,2013-02-04 20:00:00,
2013-02-04 14:05:00,29.3,-3.9,29.00,North,3,0.0,3.6,23,0.00,,,0.00,VWS V13.01,2013-02-04 20:05:00,
2013-02-04 14:10:00,28.9,-4.2,29.00,NNE,19,5.8,6.3,23,0.00,,,0.00,VWS V13.01,2013-02-04 20:10:00,
2013-02-04 14:15:00,28.4,-4.7,29.00,NE,41,4.0,4.0,23,0.00,,,0.00,VWS V13.01,2013-02-04 20:15:00,
2013-02-04 14:20:00,28.6,-4.5,29.00,North,8,2.7,3.1,23,0.00,,,0.00,VWS V13.01,2013-02-04 20:20:00,
2013-02-04 14:25:00,29.1,-4.1,29.00,North,7,2.7,2.7,23,0.00,,,0.00,VWS V13.01,2013-02-04 20:25:00,
2013-02-04 14:30:00,30.9,-2.5,29.00,NE,36,3.1,4.0,23,0.00,,,0.00,VWS V13.01,2013-02-04 20:30:00,
2013-02-04 14:36:00,31.5,-2.0,29.00,NNE,26,2.7,3.1,23,0.00,,,0.00,VWS V13.01,2013-02-04 20:36:00,
2013-02-04 14:41:00,31.1,-2.4,29.00,North,10,2.2,3.6,23,0.00,,,0.00,VWS V13.01,2013-02-04 20:41:00,
2013-02-04 14:46:00,30.6,-2.8,29.03,North,9,3.1,4.9,23,0.00,,,0.00,VWS V13.01,2013-02-04 20:46:00,
2013-02-04 14:51:00,30.2,-3.1,29.03,North,5,4.9,4.9,23,0.00,,,0.00,VWS V13.01,2013-02-04 20:51:00,
2013-02-04 14:56:00,28.9,-4.2,29.03,North,6,0.0,0.0,23,0.00,,,0.00,VWS V13.01,2013-02-04 20:56:00,
2013-02-04 15:01:00,28.4,-4.7,29.03,North,10,3.1,4.0,23,0.00,,,0.00,VWS V13.01,2013-02-04 21:01:00,
2013-02-04 15:06:00,27.3,-5.6,29.03,North,5,3.1,3.6,23,0.00,,,0.00,VWS V13.01,2013-02-04 21:06:00,
2013-02-04 15:12:00,27.1,-5.7,29.03,North,7,0.0,4.9,23,0.00,,,0.00,VWS V13.01,2013-02-04 21:12:00,
2013-02-04 15:17:00,27.0,-5.9,29.06,NNE,12,4.9,5.8,23,0.00,,,0.00,VWS V13.01,2013-02-04 21:17:00,
2013-02-04 15:22:00,26.8,-6.0,29.06,North,6,0.0,3.1,23,0.00,,,0.00,VWS V13.01,2013-02-04 21:22:00,
2013-02-04 15:27:00,26.8,-6.0,29.06,North,10,4.9,4.9,23,0.00,,,0.00,VWS V13.01,2013-02-04 21:27:00,
2013-02-04 15:32:00,26.6,-5.3,29.06,North,9,6.3,6.3,24,0.00,,,0.00,VWS V13.01,2013-02-04 21:32:00,
2013-02-04 15:37:00,26.6,-5.3,29.06,North,7,2.7,3.1,24,0.00,,,0.00,VWS V13.01,2013-02-04 21:37:00,
2013-02-04 15:42:00,27.0,-5.9,29.06,North,6,2.2,2.7,23,0.00,,,0.00,VWS V13.01,2013-02-04 21:42:00,
2013-02-04 15:47:00,27.0,-5.9,29.06,North,8,0.0,2.7,23,0.00,,,0.00,VWS V13.01,2013-02-04 21:47:00,
2013-02-04 15:52:00,26.4,-5.5,29.06,North,9,0.0,0.0,24,0.00,,,0.00,VWS V13.01,2013-02-04 21:52:00,
2013-02-04 15:58:00,26.2,-5.6,29.06,North,8,2.7,3.1,24,0.00,,,0.00,VWS V13.01,2013-02-04 21:58:00,
2013-02-04 16:03:00,25.9,-5.9,29.06,North,8,0.0,2.7,24,0.00,,,0.00,VWS V13.01,2013-02-04 22:03:00,
2013-02-04 16:08:00,25.7,-6.1,29.06,NE,56,2.7,5.4,24,0.00,,,0.00,VWS V13.01,2013-02-04 22:08:00,
2013-02-04 16:13:00,25.5,-6.2,29.06,North,11,2.7,4.0,24,0.00,,,0.00,VWS V13.01,2013-02-04 22:13:00,
2013-02-04 16:18:00,25.3,-6.4,29.03,North,9,5.4,5.4,24,0.00,,,0.00,VWS V13.01,2013-02-04 22:18:00,
2013-02-04 16:23:00,25.2,-6.6,29.03,North,6,0.0,0.0,24,0.00,,,0.00,VWS V13.01,2013-02-04 22:23:00,
2013-02-04 16:28:00,25.2,-6.6,29.03,North,5,3.6,4.9,24,0.00,,,0.00,VWS V13.01,2013-02-04 22:28:00,
2013-02-04 16:33:00,25.2,-6.6,29.03,North,8,0.0,0.0,24,0.00,,,0.00,VWS V13.01,2013-02-04 22:33:00,
2013-02-04 16:38:00,25.0,-6.7,29.03,NNE,20,3.6,3.6,24,0.00,,,0.00,VWS V13.01,2013-02-04 22:38:00,
2013-02-04 16:43:00,24.6,-7.0,29.03,North,5,0.0,2.7,24,0.00,,,0.00,VWS V13.01,2013-02-04 22:43:00,
2013-02-04 16:48:00,24.4,-7.2,29.03,North,11,0.0,0.0,24,0.00,,,0.00,VWS V13.01,2013-02-04 22:48:00,
2013-02-04 16:54:00,24.4,-7.2,29.03,North,6,0.0,4.9,24,0.00,,,0.00,VWS V13.01,2013-02-04 22:54:00,
2013-02-04 16:59:00,24.1,-7.5,29.03,North,11,0.0,0.0,24,0.00,,,0.00,VWS V13.01,2013-02-04 22:59:00,
2013-02-04 17:04:00,23.9,-7.6,29.03,North,9,3.1,4.9,24,0.00,,,0.00,VWS V13.01,2013-02-04 23:04:00,
2013-02-04 17:09:00,23.7,-7.8,29.03,North,9,0.0,5.4,24,0.00,,,0.00,VWS V13.01,2013-02-04 23:09:00,
2013-02-04 17:14:00,23.7,-7.8,29.03,North,8,0.0,0.0,24,0.00,,,0.00,VWS V13.01,2013-02-04 23:14:00,
2013-02-04 17:19:00,23.7,-5.4,29.03,NNE,13,0.0,2.7,27,0.00,,,0.00,VWS V13.01,2013-02-04 23:19:00,
2013-02-04 17:24:00,23.5,-5.5,29.03,North,7,0.0,0.0,27,0.00,,,0.00,VWS V13.01,2013-02-04 23:24:00,
2013-02-04 17:29:00,23.5,-5.5,29.03,North,8,5.8,5.8,27,0.00,,,0.00,VWS V13.01,2013-02-04 23:29:00,
2013-02-04 17:34:00,23.5,-5.5,29.03,North,7,0.0,0.0,27,0.00,,,0.00,VWS V13.01,2013-02-04 23:34:00,
2013-02-04 17:39:00,23.5,-5.5,29.03,North,8,0.0,0.0,27,0.00,,,0.00,VWS V13.01,2013-02-04 23:39:00,
2013-02-04 17:45:00,23.5,-5.5,29.03,North,8,0.0,0.0,27,0.00,,,0.00,VWS V13.01,2013-02-04 23:45:00,
2013-02-04 17:50:00,23.4,-5.7,29.03,North,9,0.0,0.0,27,0.00,,,0.00,VWS V13.01,2013-02-04 23:50:00,
2013-02-04 17:55:00,23.4,-5.7,29.03,NNE,13,0.0,0.0,27,0.00,,,0.00,VWS V13.01,2013-02-04 23:55:00,
2013-02-04 18:00:00,23.2,-5.8,29.03,North,11,0.0,0.0,27,0.00,,,0.00,VWS V13.01,2013-02-05 00:00:00,
2013-02-04 18:05:00,23.2,-5.8,29.03,North,10,0.0,0.0,27,0.00,,,0.00,VWS V13.01,2013-02-05 00:05:00,
2013-02-04 18:10:00,23.0,-6.0,29.03,NNE,14,0.0,3.6,27,0.00,,,0.00,VWS V13.01,2013-02-05 00:10:00,
2013-02-04 18:15:00,23.0,-6.0,29.03,North,9,0.0,0.0,27,0.00,,,0.00,VWS V13.01,2013-02-05 00:15:00,
2013-02-04 18:20:00,23.0,-6.0,29.03,NNE,15,4.9,6.3,27,0.00,,,0.00,VWS V13.01,2013-02-05 00:20:00,
2013-02-04 18:25:00,22.8,-6.1,29.03,North,6,0.0,0.0,27,0.00,,,0.00,VWS V13.01,2013-02-05 00:25:00,
2013-02-04 18:30:00,22.8,-6.1,29.03,North,8,0.0,0.0,27,0.00,,,0.00,VWS V13.01,2013-02-05 00:30:00,
2013-02-04 18:35:00,22.8,-6.1,29.03,North,8,0.0,0.0,27,0.00,,,0.00,VWS V13.01,2013-02-05 00:35:00,
2013-02-04 18:40:00,22.6,-6.3,29.03,NNE,14,0.0,0.0,27,0.00,,,0.00,VWS V13.01,2013-02-05 00:40:00,
2013-02-04 18:45:00,22.6,-6.3,29.03,NNE,14,0.0,0.0,27,0.00,,,0.00,VWS V13.01,2013-02-05 00:45:00,
2013-02-04 18:51:00,22.5,-6.5,29.03,North,10,0.0,0.0,27,0.00,,,0.00,VWS V13.01,2013-02-05 00:51:00,
2013-02-04 18:56:00,22.5,-6.5,29.03,North,11,0.0,0.0,27,0.00,,,0.00,VWS V13.01,2013-02-05 00:56:00,
2013-02-04 19:01:00,22.5,-6.5,29.03,North,11,0.0,0.0,27,0.00,,,0.00,VWS V13.01,2013-02-05 01:01:00,
2013-02-04 19:06:00,22.3,-6.6,29.03,NNE,12,0.0,0.0,27,0.00,,,0.00,VWS V13.01,2013-02-05 01:06:00,
2013-02-04 19:11:00,22.3,-6.6,29.03,NNE,12,0.0,0.0,27,0.00,,,0.00,VWS V13.01,2013-02-05 01:11:00,
2013-02-04 19:16:00,22.3,-6.6,29.03,NNE,12,0.0,0.0,27,0.00,,,0.00,VWS V13.01,2013-02-05 01:16:00,
2013-02-04 19:21:00,22.3,-6.6,29.03,NNE,12,0.0,0.0,27,0.00,,,0.00,VWS V13.01,2013-02-05 01:21:00,
2013-02-04 19:26:00,22.1,-6.8,29.03,NNE,12,0.0,0.0,27,0.00,,,0.00,VWS V13.01,2013-02-05 01:26:00,
2013-02-04 19:31:00,22.1,-6.8,29.03,NNE,12,0.0,0.0,27,0.00,,,0.00,VWS V13.01,2013-02-05 01:31:00,
2013-02-04 19:36:00,21.9,-6.9,29.03,NNE,12,0.0,0.0,27,0.00,,,0.00,VWS V13.01,2013-02-05 01:36:00,
2013-02-04 19:41:00,21.9,-6.9,29.03,NNE,12,0.0,0.0,27,0.00,,,0.00,VWS V13.01,2013-02-05 01:41:00,
2013-02-04 19:47:00,21.7,-7.1,29.03,NNE,12,0.0,0.0,27,0.00,,,0.00,VWS V13.01,2013-02-05 01:47:00,
2013-02-04 19:52:00,21.6,-7.2,29.03,NNE,12,0.0,0.0,27,0.00,,,0.00,VWS V13.01,2013-02-05 01:52:00,
2013-02-04 19:57:00,21.4,-7.4,29.03,NNE,12,0.0,0.0,27,0.00,,,0.00,VWS V13.01,2013-02-05 01:57:00,
2013-02-04 20:02:00,21.2,-7.6,29.03,NNE,12,0.0,0.0,27,0.00,,,0.00,VWS V13.01,2013-02-05 02:02:00,
2013-02-04 20:07:00,21.2,-7.6,29.03,NNE,12,0.0,0.0,27,0.00,,,0.00,VWS V13.01,2013-02-05 02:07:00,
2013-02-04 20:12:00,21.2,-7.6,29.03,NNE,12,0.0,0.0,27,0.00,,,0.00,VWS V13.01,2013-02-05 02:12:00,
2013-02-04 20:17:00,21.0,-7.7,29.00,NNE,12,0.0,0.0,27,0.00,,,0.00,VWS V13.01,2013-02-05 02:17:00,
2013-02-04 20:22:00,21.0,-7.7,29.00,NNE,12,0.0,0.0,27,0.00,,,0.00,VWS V13.01,2013-02-05 02:22:00,
2013-02-04 20:27:00,21.0,-7.7,29.00,NNE,12,0.0,0.0,27,0.00,,,0.00,VWS V13.01,2013-02-05 02:27:00,
2013-02-04 20:32:00,21.0,-7.7,29.00,NNE,12,0.0,0.0,27,0.00,,,0.00,VWS V13.01,2013-02-05 02:32:00,
2013-02-04 20:37:00,21.2,-7.6,29.00,NNE,12,0.0,0.0,27,0.00,,,0.00,VWS V13.01,2013-02-05 02:37:00,
2013-02-04 20:42:00,21.2,-7.6,29.00,NNE,12,0.0,0.0,27,0.00,,,0.00,VWS V13.01,2013-02-05 02:42:00,
2013-02-04 20:47:00,21.2,-7.6,29.00,NNE,12,0.0,0.0,27,0.00,,,0.00,VWS V13.01,2013-02-05 02:47:00,
2013-02-04 20:53:00,21.0,-5.5,29.00,NNE,12,0.0,0.0,30,0.00,,,0.00,VWS V13.01,2013-02-05 02:53:00,
2013-02-04 20:58:00,20.8,-5.7,29.00,NNE,12,0.0,0.0,30,0.00,,,0.00,VWS V13.01,2013-02-05 02:58:00,
2013-02-04 21:03:00,21.0,-5.5,29.00,North,3,0.0,0.0,30,0.00,,,0.00,VWS V13.01,2013-02-05 03:03:00,
2013-02-04 21:08:00,20.8,-5.7,29.00,North,3,0.0,0.0,30,0.00,,,0.00,VWS V13.01,2013-02-05 03:08:00,
2013-02-04 21:13:00,20.7,-5.9,29.00,North,3,0.0,0.0,30,0.00,,,0.00,VWS V13.01,2013-02-05 03:13:00,
2013-02-04 21:18:00,20.5,-6.0,29.00,North,3,0.0,0.0,30,0.00,,,0.00,VWS V13.01,2013-02-05 03:18:00,
2013-02-04 21:23:00,20.5,-6.0,29.00,North,3,0.0,0.0,30,0.00,,,0.00,VWS V13.01,2013-02-05 03:23:00,
2013-02-04 21:28:00,20.3,-6.2,29.00,North,3,0.0,0.0,30,0.00,,,0.00,VWS V13.01,2013-02-05 03:28:00,
2013-02-04 21:33:00,20.3,-4.8,29.00,North,3,0.0,0.0,32,0.00,,,0.00,VWS V13.01,2013-02-05 03:33:00,
2013-02-04 21:38:00,20.3,-4.8,29.00,North,3,0.0,0.0,32,0.00,,,0.00,VWS V13.01,2013-02-05 03:38:00,
2013-02-04 21:44:00,20.3,-4.8,28.97,North,4,0.0,0.0,32,0.00,,,0.00,VWS V13.01,2013-02-05 03:44:00,
2013-02-04 21:49:00,20.5,-4.0,28.97,North,3,0.0,0.0,33,0.00,,,0.00,VWS V13.01,2013-02-05 03:49:00,
2013-02-04 21:54:00,20.8,-3.7,28.97,North,4,0.0,4.0,33,0.00,,,0.00,VWS V13.01,2013-02-05 03:54:00,
2013-02-04 21:59:00,21.2,-3.4,28.97,North,4,4.0,4.0,33,0.00,,,0.00,VWS V13.01,2013-02-05 03:59:00,
2013-02-04 22:04:00,21.2,-3.4,28.97,North,4,3.1,3.6,33,0.00,,,0.00,VWS V13.01,2013-02-05 04:04:00,
2013-02-04 22:09:00,21.2,-3.4,28.97,North,4,4.0,4.0,33,0.00,,,0.00,VWS V13.01,2013-02-05 04:09:00,
2013-02-04 22:14:00,20.8,-4.4,29.00,North,4,4.0,4.0,32,0.00,,,0.00,VWS V13.01,2013-02-05 04:14:00,
2013-02-04 22:19:00,20.7,-3.9,29.00,North,4,2.7,4.9,33,0.00,,,0.00,VWS V13.01,2013-02-05 04:19:00,
2013-02-04 22:24:00,20.5,-4.0,29.00,North,4,2.7,2.7,33,0.00,,,0.00,VWS V13.01,2013-02-05 04:24:00,
2013-02-04 22:30:00,20.5,-4.0,29.00,North,3,5.8,5.8,33,0.00,,,0.00,VWS V13.01,2013-02-05 04:30:00,
2013-02-04 22:35:00,20.5,-4.0,29.00,North,4,3.6,4.0,33,0.00,,,0.00,VWS V13.01,2013-02-05 04:35:00,
2013-02-04 22:40:00,20.7,-3.3,29.00,North,4,0.0,0.0,34,0.00,,,0.00,VWS V13.01,2013-02-05 04:40:00,
2013-02-04 22:45:00,20.8,-3.1,29.00,North,4,4.0,4.0,34,0.00,,,0.00,VWS V13.01,2013-02-05 04:45:00,
2013-02-04 22:50:00,20.8,-3.1,29.00,North,4,3.6,4.5,34,0.00,,,0.00,VWS V13.01,2013-02-05 04:50:00,
2013-02-04 22:55:00,21.0,-2.9,29.00,North,4,2.2,3.6,34,0.00,,,0.00,VWS V13.01,2013-02-05 04:55:00,
2013-02-04 23:00:00,21.2,-2.8,29.00,North,4,2.7,3.6,34,0.00,,,0.00,VWS V13.01,2013-02-05 05:00:00,
2013-02-04 23:02:00,21.2,-2.8,29.00,North,4,4.5,4.5,34,0.00,,,0.00,VWS V13.01,2013-02-05 05:02:00,
2013-02-04 23:07:00,21.2,-2.8,29.00,North,4,2.7,3.6,34,0.00,,,0.00,VWS V13.01,2013-02-05 05:07:00,
2013-02-04 23:12:00,21.4,-3.2,29.00,North,4,2.7,2.7,33,0.00,,,0.00,VWS V13.01,2013-02-05 05:12:00,
2013-02-04 23:17:00,21.6,-3.1,29.00,North,4,4.0,4.0,33,0.00,,,0.00,VWS V13.01,2013-02-05 05:17:00,
2013-02-04 23:22:00,21.6,-3.1,29.00,North,4,3.1,3.1,33,0.00,,,0.00,VWS V13.01,2013-02-05 05:22:00,
2013-02-04 23:27:00,21.6,-3.1,29.00,North,4,0.0,0.0,33,0.00,,,0.00,VWS V13.01,2013-02-05 05:27:00,
2013-02-04 23:33:00,21.7,-2.9,29.00,North,4,0.0,0.0,33,0.00,,,0.00,VWS V13.01,2013-02-05 05:33:00,
2013-02-04 23:38:00,21.7,-2.9,29.00,North,4,4.0,4.0,33,0.00,,,0.00,VWS V13.01,2013-02-05 05:38:00,
2013-02-04 23:43:00,21.9,-2.8,29.00,North,4,2.7,4.0,33,0.00,,,0.00,VWS V13.01,2013-02-05 05:43:00,
2013-02-04 23:48:00,21.9,-2.8,29.00,North,4,2.7,3.1,33,0.00,,,0.00,VWS V13.01,2013-02-05 05:48:00,
2013-02-04 23:53:00,21.9,-2.8,29.00,North,4,3.1,4.0,33,0.00,,,0.00,VWS V13.01,2013-02-05 05:53:00,
2013-02-04 23:58:00,21.9,-2.8,28.97,North,4,0.0,0.0,33,0.00,,,0.00,VWS V13.01,2013-02-05 05:58:00,